トビリシ の空港の天気 - METARとTAF

トビリシ国際空港 ( UGTB / TBS ) - ジョージア トビリシ
飛行場実況気象(Metar)
観測時間06/17 23:30 GET (06/17 19:30 UTC)
風向・風速北西 9m/s
視程10km以上
天気現象
全天の8割程度の雲 雲底高度 1520m
気温23℃
湿度65%
気圧1013hPa
METARUGTB 171930Z 32018KT 9999 BKN050CB 23/16 Q1013 TEMPO TS
過去の天気等 Google飛行場航空写真 Wunderground天気予報

過去48時間のMETAR

飛行場予報(TAF)
発表時間: 6/17 21:00 GET (6/17 17:00 UTC)
予報対象時間: 17日22時 GET ~ 18日22時 GET
風向・風速北西 4m/s
視程10km以上
全天の4割程度の積乱雲 雲底高度 1830m
18日4時 GET ~ 18日22時 GET に一時的に
風向・風速不定 8m/s
天気現象雷雨
全天の8割程度の積乱雲 雲底高度 1220m
TAF UGTB 171700Z 1718/1818 31007KT 9999 SCT060CB TX30/1812Z TN22/1803Z
TEMPO 1800/1818 VRB15KT TSRA BKN040CB